Time;durP1;ratioP1;P1;durP2;ratioP2;P2;SDS_P1;SDS_P2;PMS_P1;PMS_P2;Temp;Humidity;BMP_temperature;BMP_pressure;BME280_temperature;BME280_humidity;BME280_pressure;Samples;Min_cycle;Max_cycle;Signal;HPM_P1;HPM_P2
2022/05/11 00:09:57;;;;;;;0.20;0.10;;;15.80;99.90;;;;;;26534059;22;20183;-73
2022/05/11 00:20:01;;;;;;;0.20;0.00;;;15.70;99.90;;;;;;26559710;22;20174;-73
2022/05/11 00:30:07;;;;;;;0.20;0.10;;;15.70;99.90;;;;;;26530579;22;20169;-72
2022/05/11 00:40:12;;;;;;;0.20;0.10;;;15.40;99.90;;;;;;26559602;22;20181;-72
2022/05/11 00:50:20;;;;;;;0.20;0.00;;;15.30;99.90;;;;;;26566929;22;20193;-72
2022/05/11 01:00:26;;;;;;;0.20;0.00;;;15.10;99.90;;;;;;26538577;22;20193;-71
2022/05/11 01:10:33;;;;;;;0.20;0.10;;;15.30;99.90;;;;;;26536596;22;20166;-72
2022/05/11 01:20:37;;;;;;;0.20;0.00;;;15.10;99.90;;;;;;26567271;22;20182;-72
2022/05/11 01:30:48;;;;;;;0.20;0.10;;;14.80;99.90;;;;;;26536352;22;20161;-72
2022/05/11 01:40:52;;;;;;;0.20;0.00;;;14.90;99.90;;;;;;26564182;22;20193;-72
2022/05/11 01:50:57;;;;;;;0.20;0.10;;;14.90;99.90;;;;;;26536858;22;20182;-72
2022/05/11 02:01:01;;;;;;;0.20;0.10;;;14.80;99.90;;;;;;26561525;22;20181;-72
2022/05/11 02:11:07;;;;;;;0.20;0.10;;;14.60;99.90;;;;;;26535948;22;20154;-72
2022/05/11 02:21:11;;;;;;;0.20;0.07;;;14.60;99.90;;;;;;26533298;22;20185;-72
2022/05/11 02:31:16;;;;;;;0.20;0.00;;;14.80;99.90;;;;;;26561216;22;20177;-71
2022/05/11 02:41:20;;;;;;;0.20;0.10;;;14.60;99.90;;;;;;26532992;22;20201;-71
2022/05/11 02:51:26;;;;;;;0.20;0.10;;;14.50;99.90;;;;;;26560930;22;20232;-72
2022/05/11 03:01:30;;;;;;;0.20;0.00;;;14.30;99.90;;;;;;26561902;22;20200;-73
2022/05/11 03:11:36;;;;;;;0.20;0.10;;;14.60;99.90;;;;;;26561663;22;20169;-72
2022/05/11 03:21:40;;;;;;;0.20;0.10;;;14.30;99.90;;;;;;26561964;22;20187;-73
2022/05/11 03:34:36;;;;;;;0.20;0.10;;;14.20;99.90;;;;;;26560489;22;20169;-73
2022/05/11 03:42:13;;;;;;;0.20;0.07;;;14.30;99.90;;;;;;26530179;22;20192;-73
2022/05/11 03:52:19;;;;;;;0.20;0.10;;;14.70;99.90;;;;;;26531553;22;20208;-73
2022/05/11 04:02:23;;;;;;;0.20;0.00;;;14.50;99.90;;;;;;26533791;22;20197;-73
2022/05/11 04:12:32;;;;;;;0.20;0.10;;;14.00;99.90;;;;;;26554283;22;20172;-72
2022/05/11 04:22:36;;;;;;;0.20;0.10;;;13.90;99.90;;;;;;26566576;22;20180;-72
2022/05/11 04:32:42;;;;;;;0.20;0.10;;;13.80;99.90;;;;;;26566991;22;20165;-73
2022/05/11 04:42:46;;;;;;;0.20;0.00;;;13.90;99.90;;;;;;26564888;22;20184;-72
2022/05/11 04:52:53;;;;;;;0.20;0.10;;;13.90;99.90;;;;;;26536037;22;20193;-72
2022/05/11 05:02:57;;;;;;;0.20;0.10;;;14.10;99.90;;;;;;26536992;22;20181;-73
2022/05/11 05:13:10;;;;;;;0.20;0.10;;;14.10;99.90;;;;;;26563924;22;20188;-72
2022/05/11 05:23:14;;;;;;;0.20;0.10;;;14.30;99.90;;;;;;26563754;22;20165;-73
2022/05/11 05:33:19;;;;;;;0.20;0.00;;;14.40;99.90;;;;;;26537206;22;20512;-71
2022/05/11 05:43:23;;;;;;;0.20;0.00;;;14.80;99.90;;;;;;26561390;22;20169;-74
2022/05/11 05:53:28;;;;;;;0.20;0.10;;;15.50;99.90;;;;;;26560695;22;20181;-73
2022/05/11 06:03:34;;;;;;;0.20;0.10;;;16.20;99.90;;;;;;26552684;22;20165;-73
2022/05/11 06:13:45;;;;;;;0.20;0.10;;;17.00;99.90;;;;;;26524918;22;20162;-72
2022/05/11 06:23:49;;;;;;;0.20;0.00;;;17.60;99.90;;;;;;26529186;22;20166;-72
2022/05/11 06:33:55;;;;;;;0.20;0.10;;;18.30;99.90;;;;;;26527503;22;20193;-72
2022/05/11 06:43:59;;;;;;;0.20;0.10;;;18.60;99.90;;;;;;26556171;22;20154;-72
2022/05/11 07:04:33;;;;;;;0.20;0.00;;;17.70;99.90;;;;;;26439727;22;20261;-72
2022/05/11 07:14:39;;;;;;;0.20;0.10;;;17.80;99.90;;;;;;26552652;22;20182;-71
2022/05/11 07:24:43;;;;;;;0.20;0.10;;;18.00;99.90;;;;;;26527700;22;20169;-72
2022/05/11 07:34:48;;;;;;;0.60;0.43;;;18.40;99.90;;;;;;26524680;22;20317;-71
2022/05/11 07:44:52;;;;;;;0.20;0.00;;;18.40;99.90;;;;;;26530509;22;21037;-73
2022/05/11 07:54:57;;;;;;;0.20;0.00;;;18.60;99.90;;;;;;26528569;22;20189;-72
2022/05/11 08:05:03;;;;;;;0.20;0.00;;;18.60;99.90;;;;;;26534762;22;20172;-73
2022/05/11 08:15:10;;;;;;;0.20;0.00;;;18.70;99.90;;;;;;26533777;22;20193;-73
2022/05/11 08:25:15;;;;;;;0.20;0.00;;;18.80;99.90;;;;;;26564202;22;20174;-74
2022/05/11 08:35:21;;;;;;;0.20;0.10;;;19.00;99.90;;;;;;26536552;22;20208;-73
2022/05/11 08:45:37;;;;;;;0.20;0.00;;;19.20;99.90;;;;;;26534920;22;20196;-75
2022/05/11 08:55:46;;;;;;;0.20;0.00;;;19.30;99.90;;;;;;26561438;22;20185;-76
2022/05/11 09:05:50;;;;;;;0.20;0.10;;;19.50;99.90;;;;;;26534368;22;20248;-76
2022/05/11 09:16:01;;;;;;;0.20;0.00;;;19.20;99.90;;;;;;26530657;22;20189;-74
2022/05/11 09:26:08;;;;;;;0.20;0.00;;;19.10;99.90;;;;;;26559202;22;20149;-74
2022/05/11 09:36:13;;;;;;;0.20;0.10;;;19.70;99.90;;;;;;26561701;22;20203;-75
2022/05/11 09:46:34;;;;;;;0.20;0.00;;;19.90;99.90;;;;;;26558766;22;20271;-72
2022/05/11 09:56:52;;;;;;;0.20;0.10;;;20.40;99.90;;;;;;26557618;22;20197;-75
2022/05/11 10:06:57;;;;;;;0.20;0.10;;;20.30;99.90;;;;;;26520915;22;20220;-74
2022/05/11 10:27:32;;;;;;;0.20;0.00;;;20.70;99.90;;;;;;26548311;22;20166;-75
2022/05/11 10:37:47;;;;;;;0.20;0.00;;;20.80;99.90;;;;;;26550590;22;20188;-73
2022/05/11 10:48:18;;;;;;;0.20;0.00;;;20.90;99.90;;;;;;26517163;22;20189;-75
2022/05/11 10:58:37;;;;;;;0.20;0.00;;;21.30;99.90;;;;;;26547421;22;20204;-74
2022/05/11 11:08:48;;;;;;;0.20;0.00;;;21.60;99.90;;;;;;26546715;22;20166;-73
2022/05/11 11:18:53;;;;;;;0.20;0.00;;;22.10;99.90;;;;;;26548479;22;20181;-74
2022/05/11 11:29:20;;;;;;;0.20;0.00;;;22.30;99.90;;;;;;26547202;22;20165;-74
2022/05/11 11:39:55;;;;;;;0.20;0.00;;;22.90;99.90;;;;;;26543941;22;20189;-75
2022/05/11 11:50:00;;;;;;;0.20;0.00;;;22.80;99.90;;;;;;26518022;22;20820;-73
2022/05/11 12:00:30;;;;;;;0.20;0.10;;;23.20;99.90;;;;;;26546405;22;20201;-76
2022/05/11 12:21:00;;;;;;;0.20;0.10;;;24.30;99.90;;;;;;26541721;22;20173;-73
2022/05/11 12:31:05;;;;;;;0.20;0.00;;;24.30;99.90;;;;;;26536774;22;20213;-79
2022/05/11 12:41:18;;;;;;;0.20;0.00;;;24.60;99.90;;;;;;26539250;22;20189;-74
2022/05/11 12:51:29;;;;;;;0.20;0.10;;;25.10;99.90;;;;;;26523218;22;20193;-73
2022/05/11 13:01:36;;;;;;;0.20;0.00;;;25.40;99.90;;;;;;26524880;22;20180;-74
2022/05/11 13:11:45;;;;;;;0.20;0.00;;;25.50;99.90;;;;;;26520289;22;20165;-73
2022/05/11 13:21:51;;;;;;;0.20;0.00;;;25.00;99.90;;;;;;26551847;22;20189;-74
2022/05/11 13:32:04;;;;;;;0.20;0.10;;;26.60;99.90;;;;;;26551387;22;20248;-75
2022/05/11 13:42:20;;;;;;;0.20;0.00;;;26.60;99.90;;;;;;26546020;22;20255;-74
2022/05/11 13:52:36;;;;;;;0.20;0.03;;;26.10;99.90;;;;;;26412666;22;20198;-75
2022/05/11 14:02:48;;;;;;;0.20;0.00;;;26.50;99.90;;;;;;26413247;22;20186;-76
2022/05/11 14:12:52;;;;;;;0.20;0.00;;;26.90;99.90;;;;;;26410820;22;20162;-75
2022/05/11 14:22:58;;;;;;;0.30;0.25;;;27.50;99.90;;;;;;26410767;22;20182;-74
2022/05/11 14:33:02;;;;;;;0.20;0.10;;;27.80;99.90;;;;;;26410899;22;20166;-74
2022/05/11 14:43:08;;;;;;;0.20;0.20;;;27.70;99.90;;;;;;26412714;22;20197;-75
2022/05/11 14:53:12;;;;;;;0.20;0.00;;;27.30;99.90;;;;;;26528991;22;20222;-75
2022/05/11 15:03:18;;;;;;;0.20;0.00;;;26.90;99.90;;;;;;26542179;22;20196;-73
2022/05/11 15:13:31;;;;;;;0.20;0.00;;;26.90;99.90;;;;;;26519386;22;20157;-73
2022/05/11 15:23:36;;;;;;;0.88;0.82;;;27.40;99.90;;;;;;26498007;22;20260;-73
2022/05/11 15:33:40;;;;;;;0.20;0.20;;;26.60;99.90;;;;;;26550227;22;20373;-74
2022/05/11 17:08:25;;;;;;;0.20;0.00;;;22.20;99.90;;;;;;26402145;22;20190;-79
2022/05/11 17:18:32;;;;;;;0.20;0.00;;;23.60;99.90;;;;;;26427350;22;20186;-75
2022/05/11 17:28:38;;;;;;;0.20;0.10;;;24.30;99.90;;;;;;26395733;22;20166;-74
2022/05/11 17:38:41;;;;;;;0.20;0.00;;;24.50;99.90;;;;;;26424069;22;20190;-73
2022/05/11 17:48:47;;;;;;;0.20;0.00;;;24.40;99.90;;;;;;26395732;22;20166;-72
2022/05/11 17:58:51;;;;;;;0.20;0.00;;;23.60;99.90;;;;;;26394886;22;20215;-78
2022/05/11 18:09:37;;;;;;;0.20;0.00;;;21.70;99.90;;;;;;26441572;22;20193;-76
2022/05/11 18:20:24;;;;;;;0.20;0.00;;;21.10;99.90;;;;;;26449171;22;20205;-74
2022/05/11 18:31:10;;;;;;;0.20;0.00;;;20.80;99.90;;;;;;26412984;22;20252;-75
2022/05/11 18:41:14;;;;;;;0.20;0.10;;;20.40;99.90;;;;;;26422783;22;20190;-75
2022/05/11 18:51:20;;;;;;;0.20;0.00;;;19.70;99.90;;;;;;26426360;22;20193;-74
2022/05/11 19:01:24;;;;;;;0.20;0.10;;;19.20;99.90;;;;;;26426126;22;20182;-74
2022/05/11 19:11:29;;;;;;;0.20;0.10;;;18.90;99.90;;;;;;26425520;22;21011;-74
2022/05/11 19:21:34;;;;;;;0.20;0.10;;;19.00;99.90;;;;;;26425314;22;20192;-74
2022/05/11 19:31:39;;;;;;;0.20;0.10;;;19.00;99.90;;;;;;26394498;22;20173;-73
2022/05/11 19:41:43;;;;;;;0.20;0.00;;;18.80;99.90;;;;;;26369429;22;20211;-74
2022/05/11 19:51:50;;;;;;;0.20;0.00;;;18.80;99.90;;;;;;26396391;22;20227;-73
2022/05/11 20:01:54;;;;;;;0.20;0.10;;;18.60;99.90;;;;;;26425616;22;20182;-76
2022/05/11 20:11:59;;;;;;;0.20;0.10;;;18.40;99.90;;;;;;26397571;22;20190;-74
2022/05/11 20:22:03;;;;;;;0.20;0.00;;;18.10;99.90;;;;;;26423991;22;20579;-71
2022/05/11 20:42:30;;;;;;;0.20;0.00;;;17.60;99.90;;;;;;26414621;22;20216;-73
2022/05/11 20:52:35;;;;;;;0.20;0.00;;;17.40;99.90;;;;;;26390057;22;20182;-73
2022/05/11 21:02:39;;;;;;;0.20;0.00;;;17.20;99.90;;;;;;26417319;22;20207;-74
2022/05/11 21:12:45;;;;;;;0.20;0.00;;;17.20;99.90;;;;;;26389799;22;20407;-73
2022/05/11 21:22:50;;;;;;;0.20;0.10;;;17.00;99.90;;;;;;26420187;22;20182;-72
2022/05/11 21:32:56;;;;;;;0.20;0.00;;;16.70;99.90;;;;;;26421610;22;20150;-73
2022/05/11 21:43:00;;;;;;;0.20;0.10;;;16.70;99.90;;;;;;26421572;22;20193;-73
2022/05/11 21:53:10;;;;;;;0.20;0.10;;;16.60;99.90;;;;;;26392887;22;20186;-73
2022/05/11 22:03:15;;;;;;;0.20;0.00;;;16.40;99.90;;;;;;26423049;22;20181;-72
2022/05/11 22:13:20;;;;;;;0.20;0.10;;;16.40;99.90;;;;;;26421632;22;20201;-73
2022/05/11 22:23:24;;;;;;;0.20;0.00;;;16.30;99.90;;;;;;26401297;22;20186;-71
2022/05/11 22:33:34;;;;;;;0.20;0.10;;;16.10;99.90;;;;;;26402512;22;20169;-72
2022/05/11 22:43:40;;;;;;;0.20;0.00;;;16.00;99.90;;;;;;26432439;22;20182;-72
2022/05/11 22:53:45;;;;;;;0.20;0.00;;;16.00;99.90;;;;;;26432454;22;20682;-71
2022/05/11 23:03:50;;;;;;;0.20;0.10;;;15.90;99.90;;;;;;26430265;22;20185;-71
2022/05/11 23:13:56;;;;;;;0.20;0.10;;;15.90;99.90;;;;;;26401412;22;20194;-73
2022/05/11 23:24:05;;;;;;;0.20;0.10;;;15.80;99.90;;;;;;26429835;22;20178;-73
2022/05/11 23:34:10;;;;;;;0.20;0.10;;;15.70;99.90;;;;;;26403751;22;20162;-71
2022/05/11 23:44:14;;;;;;;0.20;0.10;;;15.50;99.90;;;;;;26429505;22;20177;-72
2022/05/11 23:54:19;;;;;;;0.20;0.00;;;15.40;99.90;;;;;;26429107;22;20182;-73
